sensor_id;sensor_type;location;lat;lon;timestamp;temperature;humidity
11214;DHT22;5664;48.606;13.456;2023-02-12T00:01:17;17.80;57.50
11214;DHT22;5664;48.606;13.456;2023-02-12T00:03:43;17.80;57.50
11214;DHT22;5664;48.606;13.456;2023-02-12T00:06:09;17.80;57.50
11214;DHT22;5664;48.606;13.456;2023-02-12T00:08:35;17.80;57.60
11214;DHT22;5664;48.606;13.456;2023-02-12T00:11:11;17.70;57.50
11214;DHT22;5664;48.606;13.456;2023-02-12T00:13:37;17.70;57.50
11214;DHT22;5664;48.606;13.456;2023-02-12T00:16:03;17.70;57.50
11214;DHT22;5664;48.606;13.456;2023-02-12T00:18:29;17.80;57.60
11214;DHT22;5664;48.606;13.456;2023-02-12T00:20:54;17.70;57.50
11214;DHT22;5664;48.606;13.456;2023-02-12T00:23:22;17.70;57.50
11214;DHT22;5664;48.606;13.456;2023-02-12T00:25:48;17.70;57.50
11214;DHT22;5664;48.606;13.456;2023-02-12T00:28:13;17.70;57.50
11214;DHT22;5664;48.606;13.456;2023-02-12T00:30:39;17.70;57.50
11214;DHT22;5664;48.606;13.456;2023-02-12T00:33:05;17.70;57.50
11214;DHT22;5664;48.606;13.456;2023-02-12T00:35:30;17.70;57.50
11214;DHT22;5664;48.606;13.456;2023-02-12T00:37:56;17.60;57.50
11214;DHT22;5664;48.606;13.456;2023-02-12T00:40:21;17.70;57.50
11214;DHT22;5664;48.606;13.456;2023-02-12T00:42:47;17.70;57.50
11214;DHT22;5664;48.606;13.456;2023-02-12T00:45:12;17.70;57.50
11214;DHT22;5664;48.606;13.456;2023-02-12T00:47:37;17.60;57.50
11214;DHT22;5664;48.606;13.456;2023-02-12T00:50:03;17.70;57.50
11214;DHT22;5664;48.606;13.456;2023-02-12T00:52:29;17.60;57.50
11214;DHT22;5664;48.606;13.456;2023-02-12T00:54:54;17.60;57.50
11214;DHT22;5664;48.606;13.456;2023-02-12T00:57:19;17.70;57.50
11214;DHT22;5664;48.606;13.456;2023-02-12T00:59:45;17.60;57.50
11214;DHT22;5664;48.606;13.456;2023-02-12T01:02:10;17.60;57.50
11214;DHT22;5664;48.606;13.456;2023-02-12T01:04:36;17.70;57.50
11214;DHT22;5664;48.606;13.456;2023-02-12T01:07:01;17.60;57.50
11214;DHT22;5664;48.606;13.456;2023-02-12T01:09:27;17.60;57.50
11214;DHT22;5664;48.606;13.456;2023-02-12T01:11:52;17.70;57.50
11214;DHT22;5664;48.606;13.456;2023-02-12T01:14:18;17.60;57.50
11214;DHT22;5664;48.606;13.456;2023-02-12T01:16:43;17.60;57.50
11214;DHT22;5664;48.606;13.456;2023-02-12T01:19:09;17.70;57.50
11214;DHT22;5664;48.606;13.456;2023-02-12T01:21:35;17.60;57.50
11214;DHT22;5664;48.606;13.456;2023-02-12T01:24:00;17.60;57.50
11214;DHT22;5664;48.606;13.456;2023-02-12T01:26:27;17.50;57.40
11214;DHT22;5664;48.606;13.456;2023-02-12T01:28:53;17.60;57.80
11214;DHT22;5664;48.606;13.456;2023-02-12T01:31:23;17.50;57.40
11214;DHT22;5664;48.606;13.456;2023-02-12T01:33:49;17.60;57.50
11214;DHT22;5664;48.606;13.456;2023-02-12T01:36:16;17.60;57.50
11214;DHT22;5664;48.606;13.456;2023-02-12T01:38:42;17.60;57.50
11214;DHT22;5664;48.606;13.456;2023-02-12T01:41:08;17.50;57.50
11214;DHT22;5664;48.606;13.456;2023-02-12T01:43:35;17.60;57.50
11214;DHT22;5664;48.606;13.456;2023-02-12T01:46:01;17.50;57.50
11214;DHT22;5664;48.606;13.456;2023-02-12T01:48:27;17.50;57.50
11214;DHT22;5664;48.606;13.456;2023-02-12T01:50:53;17.50;57.50
11214;DHT22;5664;48.606;13.456;2023-02-12T01:53:20;17.50;57.50
11214;DHT22;5664;48.606;13.456;2023-02-12T01:55:51;17.40;57.40
11214;DHT22;5664;48.606;13.456;2023-02-12T01:58:17;17.50;57.50
11214;DHT22;5664;48.606;13.456;2023-02-12T02:00:43;17.50;57.50
11214;DHT22;5664;48.606;13.456;2023-02-12T02:03:08;17.60;57.50
11214;DHT22;5664;48.606;13.456;2023-02-12T02:05:40;17.60;57.50
11214;DHT22;5664;48.606;13.456;2023-02-12T02:08:06;17.50;57.40
11214;DHT22;5664;48.606;13.456;2023-02-12T02:10:32;17.50;57.50
11214;DHT22;5664;48.606;13.456;2023-02-12T02:12:57;17.50;57.50
11214;DHT22;5664;48.606;13.456;2023-02-12T02:15:42;17.40;57.40
11214;DHT22;5664;48.606;13.456;2023-02-12T02:18:27;17.40;57.40
11214;DHT22;5664;48.606;13.456;2023-02-12T02:31:19;17.40;57.40
11214;DHT22;5664;48.606;13.456;2023-02-12T02:36:35;17.40;57.50
11214;DHT22;5664;48.606;13.456;2023-02-12T02:39:03;17.40;57.50
11214;DHT22;5664;48.606;13.456;2023-02-12T02:41:33;17.40;57.40
11214;DHT22;5664;48.606;13.456;2023-02-12T02:44:01;17.40;57.50
11214;DHT22;5664;48.606;13.456;2023-02-12T02:46:33;17.40;57.50
11214;DHT22;5664;48.606;13.456;2023-02-12T02:49:01;17.40;57.50
11214;DHT22;5664;48.606;13.456;2023-02-12T02:51:35;17.40;57.40
11214;DHT22;5664;48.606;13.456;2023-02-12T02:54:10;17.30;57.40
11214;DHT22;5664;48.606;13.456;2023-02-12T02:56:38;17.30;57.40
11214;DHT22;5664;48.606;13.456;2023-02-12T02:59:19;17.40;57.40
11214;DHT22;5664;48.606;13.456;2023-02-12T03:01:47;17.30;57.40
11214;DHT22;5664;48.606;13.456;2023-02-12T03:04:17;17.40;57.40
11214;DHT22;5664;48.606;13.456;2023-02-12T03:06:47;17.30;57.40
11214;DHT22;5664;48.606;13.456;2023-02-12T03:09:18;17.30;57.40
11214;DHT22;5664;48.606;13.456;2023-02-12T03:11:46;17.30;57.40
11214;DHT22;5664;48.606;13.456;2023-02-12T03:14:21;17.30;57.40
11214;DHT22;5664;48.606;13.456;2023-02-12T03:16:50;17.30;57.40
11214;DHT22;5664;48.606;13.456;2023-02-12T03:19:18;17.30;57.40
11214;DHT22;5664;48.606;13.456;2023-02-12T03:21:47;17.30;57.40
11214;DHT22;5664;48.606;13.456;2023-02-12T03:27:28;17.30;57.40
11214;DHT22;5664;48.606;13.456;2023-02-12T03:29:55;17.30;57.40
11214;DHT22;5664;48.606;13.456;2023-02-12T03:42:30;17.10;57.30
11214;DHT22;5664;48.606;13.456;2023-02-12T03:44:59;17.30;57.70
11214;DHT22;5664;48.606;13.456;2023-02-12T03:47:43;17.10;57.30
11214;DHT22;5664;48.606;13.456;2023-02-12T03:50:20;17.20;57.40
11214;DHT22;5664;48.606;13.456;2023-02-12T03:52:48;17.20;57.40
11214;DHT22;5664;48.606;13.456;2023-02-12T03:55:14;17.20;57.40
11214;DHT22;5664;48.606;13.456;2023-02-12T03:57:44;17.20;57.40
11214;DHT22;5664;48.606;13.456;2023-02-12T04:00:12;17.20;57.40
11214;DHT22;5664;48.606;13.456;2023-02-12T04:02:38;17.20;57.30
11214;DHT22;5664;48.606;13.456;2023-02-12T04:05:05;17.20;57.40
11214;DHT22;5664;48.606;13.456;2023-02-12T04:07:30;17.20;57.90
11214;DHT22;5664;48.606;13.456;2023-02-12T04:09:56;17.20;57.30
11214;DHT22;5664;48.606;13.456;2023-02-12T04:12:43;17.30;57.40
11214;DHT22;5664;48.606;13.456;2023-02-12T04:23:10;17.20;57.30
11214;DHT22;5664;48.606;13.456;2023-02-12T04:31:07;17.20;57.30
11214;DHT22;5664;48.606;13.456;2023-02-12T04:33:42;17.10;57.30
11214;DHT22;5664;48.606;13.456;2023-02-12T04:36:12;17.10;57.30
11214;DHT22;5664;48.606;13.456;2023-02-12T04:38:40;17.20;57.30
11214;DHT22;5664;48.606;13.456;2023-02-12T04:41:07;17.10;57.30
11214;DHT22;5664;48.606;13.456;2023-02-12T04:43:34;17.30;57.40
11214;DHT22;5664;48.606;13.456;2023-02-12T04:46:00;17.10;57.20
11214;DHT22;5664;48.606;13.456;2023-02-12T04:48:26;17.10;57.20
11214;DHT22;5664;48.606;13.456;2023-02-12T04:50:51;17.20;57.30
11214;DHT22;5664;48.606;13.456;2023-02-12T04:53:17;17.20;57.30
11214;DHT22;5664;48.606;13.456;2023-02-12T04:55:42;17.10;57.30
11214;DHT22;5664;48.606;13.456;2023-02-12T04:58:08;17.20;57.30
11214;DHT22;5664;48.606;13.456;2023-02-12T05:00:33;17.10;57.20
11214;DHT22;5664;48.606;13.456;2023-02-12T05:02:59;17.20;57.30
11214;DHT22;5664;48.606;13.456;2023-02-12T05:05:24;17.10;57.20
11214;DHT22;5664;48.606;13.456;2023-02-12T05:07:50;17.10;57.20
11214;DHT22;5664;48.606;13.456;2023-02-12T05:10:15;17.50;57.40
11214;DHT22;5664;48.606;13.456;2023-02-12T05:12:41;17.10;57.20
11214;DHT22;5664;48.606;13.456;2023-02-12T05:15:06;17.10;57.20
11214;DHT22;5664;48.606;13.456;2023-02-12T05:17:32;17.10;57.30
11214;DHT22;5664;48.606;13.456;2023-02-12T05:19:57;17.10;57.20
11214;DHT22;5664;48.606;13.456;2023-02-12T05:22:23;17.00;57.10
11214;DHT22;5664;48.606;13.456;2023-02-12T05:24:48;17.10;57.20
11214;DHT22;5664;48.606;13.456;2023-02-12T05:27:14;16.90;57.10
11214;DHT22;5664;48.606;13.456;2023-02-12T05:29:39;17.20;57.30
11214;DHT22;5664;48.606;13.456;2023-02-12T05:32:05;17.10;57.20
11214;DHT22;5664;48.606;13.456;2023-02-12T05:34:31;17.10;57.20
11214;DHT22;5664;48.606;13.456;2023-02-12T05:36:56;17.10;57.20
11214;DHT22;5664;48.606;13.456;2023-02-12T05:39:22;17.20;57.30
11214;DHT22;5664;48.606;13.456;2023-02-12T05:41:47;17.10;57.30
11214;DHT22;5664;48.606;13.456;2023-02-12T05:44:12;17.10;57.20
11214;DHT22;5664;48.606;13.456;2023-02-12T05:46:39;17.00;57.20
11214;DHT22;5664;48.606;13.456;2023-02-12T05:49:05;17.10;57.30
11214;DHT22;5664;48.606;13.456;2023-02-12T05:51:30;17.10;57.30
11214;DHT22;5664;48.606;13.456;2023-02-12T05:53:57;17.00;57.20
11214;DHT22;5664;48.606;13.456;2023-02-12T05:56:27;17.00;57.20
11214;DHT22;5664;48.606;13.456;2023-02-12T05:58:55;17.00;57.20
11214;DHT22;5664;48.606;13.456;2023-02-12T06:01:22;17.00;57.20
11214;DHT22;5664;48.606;13.456;2023-02-12T06:03:47;17.00;57.20
11214;DHT22;5664;48.606;13.456;2023-02-12T06:06:13;17.00;57.20
11214;DHT22;5664;48.606;13.456;2023-02-12T06:08:38;17.00;57.20
11214;DHT22;5664;48.606;13.456;2023-02-12T06:11:05;16.80;57.10
11214;DHT22;5664;48.606;13.456;2023-02-12T06:13:31;17.00;57.20
11214;DHT22;5664;48.606;13.456;2023-02-12T06:15:56;16.90;57.20
11214;DHT22;5664;48.606;13.456;2023-02-12T06:18:22;17.00;57.20
11214;DHT22;5664;48.606;13.456;2023-02-12T06:20:48;17.00;57.30
11214;DHT22;5664;48.606;13.456;2023-02-12T06:23:13;16.80;57.10
11214;DHT22;5664;48.606;13.456;2023-02-12T06:25:39;17.00;57.20
11214;DHT22;5664;48.606;13.456;2023-02-12T06:28:04;17.00;57.30
11214;DHT22;5664;48.606;13.456;2023-02-12T06:30:29;17.00;57.30
11214;DHT22;5664;48.606;13.456;2023-02-12T06:32:57;17.00;57.30
11214;DHT22;5664;48.606;13.456;2023-02-12T06:35:23;17.00;57.30
11214;DHT22;5664;48.606;13.456;2023-02-12T06:37:48;17.00;57.30
11214;DHT22;5664;48.606;13.456;2023-02-12T06:40:14;17.00;57.30
11214;DHT22;5664;48.606;13.456;2023-02-12T06:42:39;17.00;57.30
11214;DHT22;5664;48.606;13.456;2023-02-12T06:45:05;16.90;57.20
11214;DHT22;5664;48.606;13.456;2023-02-12T06:47:30;16.90;57.30
11214;DHT22;5664;48.606;13.456;2023-02-12T06:49:56;16.90;57.20
11214;DHT22;5664;48.606;13.456;2023-02-12T06:52:21;16.90;57.30
11214;DHT22;5664;48.606;13.456;2023-02-12T06:54:47;16.90;57.30
11214;DHT22;5664;48.606;13.456;2023-02-12T06:57:12;16.90;57.20
11214;DHT22;5664;48.606;13.456;2023-02-12T06:59:38;16.90;57.20
11214;DHT22;5664;48.606;13.456;2023-02-12T07:02:03;16.90;57.30
11214;DHT22;5664;48.606;13.456;2023-02-12T07:04:29;16.90;57.20
11214;DHT22;5664;48.606;13.456;2023-02-12T07:06:54;16.90;57.30
11214;DHT22;5664;48.606;13.456;2023-02-12T07:09:20;17.00;57.70
11214;DHT22;5664;48.606;13.456;2023-02-12T07:11:45;16.80;57.20
11214;DHT22;5664;48.606;13.456;2023-02-12T07:14:14;16.80;57.20
11214;DHT22;5664;48.606;13.456;2023-02-12T07:16:40;16.80;57.20
11214;DHT22;5664;48.606;13.456;2023-02-12T07:19:05;16.80;57.30
11214;DHT22;5664;48.606;13.456;2023-02-12T07:21:31;16.90;57.30
11214;DHT22;5664;48.606;13.456;2023-02-12T07:23:56;16.90;57.30
11214;DHT22;5664;48.606;13.456;2023-02-12T07:26:21;17.00;57.40
11214;DHT22;5664;48.606;13.456;2023-02-12T07:28:47;17.00;57.50
11214;DHT22;5664;48.606;13.456;2023-02-12T07:31:14;16.90;57.40
11214;DHT22;5664;48.606;13.456;2023-02-12T07:33:40;17.00;57.50
11214;DHT22;5664;48.606;13.456;2023-02-12T07:36:07;16.90;57.50
11214;DHT22;5664;48.606;13.456;2023-02-12T07:38:32;16.90;57.50
11214;DHT22;5664;48.606;13.456;2023-02-12T07:43:36;16.90;57.50
11214;DHT22;5664;48.606;13.456;2023-02-12T07:46:06;16.90;57.60
11214;DHT22;5664;48.606;13.456;2023-02-12T07:48:31;16.80;57.50
11214;DHT22;5664;48.606;13.456;2023-02-12T07:51:01;16.80;57.50
11214;DHT22;5664;48.606;13.456;2023-02-12T07:53:27;16.90;57.60
11214;DHT22;5664;48.606;13.456;2023-02-12T07:55:52;16.70;57.50
11214;DHT22;5664;48.606;13.456;2023-02-12T07:58:17;16.90;57.60
11214;DHT22;5664;48.606;13.456;2023-02-12T08:00:43;16.90;57.60
11214;DHT22;5664;48.606;13.456;2023-02-12T08:03:08;17.00;57.60
11214;DHT22;5664;48.606;13.456;2023-02-12T08:05:34;17.00;57.60
11214;DHT22;5664;48.606;13.456;2023-02-12T08:07:59;17.00;57.40
11214;DHT22;5664;48.606;13.456;2023-02-12T08:10:25;17.10;57.30
11214;DHT22;5664;48.606;13.456;2023-02-12T08:12:50;18.50;58.00
11214;DHT22;5664;48.606;13.456;2023-02-12T08:15:16;17.40;57.20
11214;DHT22;5664;48.606;13.456;2023-02-12T08:17:41;17.40;57.00
11214;DHT22;5664;48.606;13.456;2023-02-12T08:20:07;17.50;56.90
11214;DHT22;5664;48.606;13.456;2023-02-12T08:22:33;17.60;56.80
11214;DHT22;5664;48.606;13.456;2023-02-12T08:24:58;17.60;56.70
11214;DHT22;5664;48.606;13.456;2023-02-12T08:27:24;17.80;56.70
11214;DHT22;5664;48.606;13.456;2023-02-12T08:29:49;17.80;56.50
11214;DHT22;5664;48.606;13.456;2023-02-12T08:32:15;18.10;56.50
11214;DHT22;5664;48.606;13.456;2023-02-12T08:34:41;18.00;56.40
11214;DHT22;5664;48.606;13.456;2023-02-12T08:37:06;17.90;56.30
11214;DHT22;5664;48.606;13.456;2023-02-12T08:39:32;18.00;56.20
11214;DHT22;5664;48.606;13.456;2023-02-12T08:41:58;18.20;56.20
11214;DHT22;5664;48.606;13.456;2023-02-12T08:44:23;18.10;56.10
11214;DHT22;5664;48.606;13.456;2023-02-12T08:46:49;18.10;56.00
11214;DHT22;5664;48.606;13.456;2023-02-12T08:49:20;18.20;55.90
11214;DHT22;5664;48.606;13.456;2023-02-12T08:51:47;18.30;55.80
11214;DHT22;5664;48.606;13.456;2023-02-12T08:54:14;18.30;55.70
11214;DHT22;5664;48.606;13.456;2023-02-12T08:56:40;18.40;55.60
11214;DHT22;5664;48.606;13.456;2023-02-12T08:59:07;18.40;55.40
11214;DHT22;5664;48.606;13.456;2023-02-12T09:01:33;18.50;55.40
11214;DHT22;5664;48.606;13.456;2023-02-12T09:03:59;18.50;55.30
11214;DHT22;5664;48.606;13.456;2023-02-12T09:06:25;18.70;55.40
11214;DHT22;5664;48.606;13.456;2023-02-12T09:08:53;18.60;55.40
11214;DHT22;5664;48.606;13.456;2023-02-12T09:11:19;18.70;55.40
11214;DHT22;5664;48.606;13.456;2023-02-12T09:13:48;18.80;55.50
11214;DHT22;5664;48.606;13.456;2023-02-12T09:16:14;18.80;55.50
11214;DHT22;5664;48.606;13.456;2023-02-12T09:18:39;18.80;55.50
11214;DHT22;5664;48.606;13.456;2023-02-12T09:21:07;18.80;55.50
11214;DHT22;5664;48.606;13.456;2023-02-12T09:23:32;18.90;55.50
11214;DHT22;5664;48.606;13.456;2023-02-12T09:25:58;18.90;55.40
11214;DHT22;5664;48.606;13.456;2023-02-12T09:28:24;18.90;55.40
11214;DHT22;5664;48.606;13.456;2023-02-12T09:30:49;18.90;55.40
11214;DHT22;5664;48.606;13.456;2023-02-12T09:33:15;18.90;55.30
11214;DHT22;5664;48.606;13.456;2023-02-12T09:35:41;18.90;55.30
11214;DHT22;5664;48.606;13.456;2023-02-12T09:38:06;18.90;55.30
11214;DHT22;5664;48.606;13.456;2023-02-12T09:40:34;18.80;55.20
11214;DHT22;5664;48.606;13.456;2023-02-12T09:43:11;18.80;55.20
11214;DHT22;5664;48.606;13.456;2023-02-12T09:48:29;18.80;55.10
11214;DHT22;5664;48.606;13.456;2023-02-12T09:50:58;18.80;55.10
11214;DHT22;5664;48.606;13.456;2023-02-12T09:53:26;18.80;55.00
11214;DHT22;5664;48.606;13.456;2023-02-12T09:55:52;18.80;55.20
11214;DHT22;5664;48.606;13.456;2023-02-12T09:58:23;18.70;55.00
11214;DHT22;5664;48.606;13.456;2023-02-12T10:00:52;18.70;55.00
11214;DHT22;5664;48.606;13.456;2023-02-12T10:03:18;18.70;55.00
11214;DHT22;5664;48.606;13.456;2023-02-12T10:18:41;18.60;55.30
11214;DHT22;5664;48.606;13.456;2023-02-12T10:24:03;18.60;55.30
11214;DHT22;5664;48.606;13.456;2023-02-12T10:26:32;18.60;55.30
11214;DHT22;5664;48.606;13.456;2023-02-12T10:29:00;18.50;55.30
11214;DHT22;5664;48.606;13.456;2023-02-12T10:31:30;18.50;55.30
11214;DHT22;5664;48.606;13.456;2023-02-12T10:33:56;18.50;55.30
11214;DHT22;5664;48.606;13.456;2023-02-12T10:39:10;18.50;55.30
11214;DHT22;5664;48.606;13.456;2023-02-12T10:41:38;18.50;55.30
11214;DHT22;5664;48.606;13.456;2023-02-12T10:44:05;18.50;55.40
11214;DHT22;5664;48.606;13.456;2023-02-12T10:46:30;18.50;55.50
11214;DHT22;5664;48.606;13.456;2023-02-12T10:48:56;18.60;55.60
11214;DHT22;5664;48.606;13.456;2023-02-12T10:56:48;18.50;55.70
11214;DHT22;5664;48.606;13.456;2023-02-12T10:59:20;18.50;55.70
11214;DHT22;5664;48.606;13.456;2023-02-12T11:01:46;18.50;55.70
11214;DHT22;5664;48.606;13.456;2023-02-12T11:04:20;18.50;55.80
11214;DHT22;5664;48.606;13.456;2023-02-12T11:06:55;18.50;55.80
11214;DHT22;5664;48.606;13.456;2023-02-12T11:09:41;18.50;55.70
11214;DHT22;5664;48.606;13.456;2023-02-12T11:12:16;18.50;55.80
11214;DHT22;5664;48.606;13.456;2023-02-12T11:14:53;18.50;55.90
11214;DHT22;5664;48.606;13.456;2023-02-12T11:17:23;18.50;55.90
11214;DHT22;5664;48.606;13.456;2023-02-12T11:22:28;18.50;56.00
11214;DHT22;5664;48.606;13.456;2023-02-12T11:25:02;18.50;56.10
11214;DHT22;5664;48.606;13.456;2023-02-12T11:27:32;18.50;56.10
11214;DHT22;5664;48.606;13.456;2023-02-12T11:30:17;18.50;56.20
11214;DHT22;5664;48.606;13.456;2023-02-12T11:32:44;18.50;56.20
11214;DHT22;5664;48.606;13.456;2023-02-12T11:35:18;18.50;56.20
11214;DHT22;5664;48.606;13.456;2023-02-12T11:37:49;18.50;56.20
11214;DHT22;5664;48.606;13.456;2023-02-12T11:40:19;18.50;56.20
11214;DHT22;5664;48.606;13.456;2023-02-12T11:42:55;18.50;56.10
11214;DHT22;5664;48.606;13.456;2023-02-12T11:45:24;18.50;56.20
11214;DHT22;5664;48.606;13.456;2023-02-12T11:47:51;18.50;56.10
11214;DHT22;5664;48.606;13.456;2023-02-12T11:52:46;18.50;56.10
11214;DHT22;5664;48.606;13.456;2023-02-12T11:55:23;18.50;56.10
11214;DHT22;5664;48.606;13.456;2023-02-12T11:57:52;18.50;56.10
11214;DHT22;5664;48.606;13.456;2023-02-12T12:00:23;18.50;56.10
11214;DHT22;5664;48.606;13.456;2023-02-12T12:02:52;18.50;56.10
11214;DHT22;5664;48.606;13.456;2023-02-12T12:05:20;18.50;56.10
11214;DHT22;5664;48.606;13.456;2023-02-12T12:07:50;18.50;56.00
11214;DHT22;5664;48.606;13.456;2023-02-12T12:12:50;18.60;56.10
11214;DHT22;5664;48.606;13.456;2023-02-12T12:15:25;18.60;56.00
11214;DHT22;5664;48.606;13.456;2023-02-12T12:21:14;18.60;56.00
11214;DHT22;5664;48.606;13.456;2023-02-12T12:23:45;18.60;56.10
11214;DHT22;5664;48.606;13.456;2023-02-12T12:26:21;18.60;56.00
11214;DHT22;5664;48.606;13.456;2023-02-12T12:28:50;18.60;56.10
11214;DHT22;5664;48.606;13.456;2023-02-12T12:49:22;18.60;56.10
11214;DHT22;5664;48.606;13.456;2023-02-12T12:52:09;18.60;56.10
11214;DHT22;5664;48.606;13.456;2023-02-12T12:54:46;18.60;56.10
11214;DHT22;5664;48.606;13.456;2023-02-12T12:57:19;18.60;56.10
11214;DHT22;5664;48.606;13.456;2023-02-12T13:10:09;18.60;56.10
11214;DHT22;5664;48.606;13.456;2023-02-12T13:18:01;18.60;56.10
11214;DHT22;5664;48.606;13.456;2023-02-12T13:20:35;18.60;56.10
11214;DHT22;5664;48.606;13.456;2023-02-12T13:23:10;18.70;56.80
11214;DHT22;5664;48.606;13.456;2023-02-12T13:28:08;18.60;56.20
11214;DHT22;5664;48.606;13.456;2023-02-12T13:30:55;18.70;56.30
11214;DHT22;5664;48.606;13.456;2023-02-12T13:33:26;18.70;56.30
11214;DHT22;5664;48.606;13.456;2023-02-12T13:35:53;18.70;56.30
11214;DHT22;5664;48.606;13.456;2023-02-12T13:38:24;18.70;56.40
11214;DHT22;5664;48.606;13.456;2023-02-12T13:40:56;18.70;56.40
11214;DHT22;5664;48.606;13.456;2023-02-12T13:56:05;18.70;56.40
11214;DHT22;5664;48.606;13.456;2023-02-12T14:01:00;18.70;56.40
11214;DHT22;5664;48.606;13.456;2023-02-12T14:03:26;18.70;56.40
11214;DHT22;5664;48.606;13.456;2023-02-12T14:06:09;18.70;56.40
11214;DHT22;5664;48.606;13.456;2023-02-12T14:08:36;18.70;56.40
11214;DHT22;5664;48.606;13.456;2023-02-12T14:11:03;18.60;56.30
11214;DHT22;5664;48.606;13.456;2023-02-12T14:13:31;18.70;56.30
11214;DHT22;5664;48.606;13.456;2023-02-12T14:16:17;18.70;56.30
11214;DHT22;5664;48.606;13.456;2023-02-12T14:18:43;18.70;56.30
11214;DHT22;5664;48.606;13.456;2023-02-12T14:23:37;18.70;56.30
11214;DHT22;5664;48.606;13.456;2023-02-12T14:26:07;18.70;56.30
11214;DHT22;5664;48.606;13.456;2023-02-12T14:33:40;18.70;56.30
11214;DHT22;5664;48.606;13.456;2023-02-12T14:36:14;18.70;56.30
11214;DHT22;5664;48.606;13.456;2023-02-12T14:41:21;18.70;56.30
11214;DHT22;5664;48.606;13.456;2023-02-12T14:46:51;18.70;56.30
11214;DHT22;5664;48.606;13.456;2023-02-12T14:49:18;18.70;56.20
11214;DHT22;5664;48.606;13.456;2023-02-12T14:54:41;18.60;56.30
11214;DHT22;5664;48.606;13.456;2023-02-12T14:57:08;18.70;56.40
11214;DHT22;5664;48.606;13.456;2023-02-12T14:59:38;18.60;56.40
11214;DHT22;5664;48.606;13.456;2023-02-12T15:02:04;18.60;56.50
11214;DHT22;5664;48.606;13.456;2023-02-12T15:04:33;18.50;56.50
11214;DHT22;5664;48.606;13.456;2023-02-12T15:07:04;18.50;56.60
11214;DHT22;5664;48.606;13.456;2023-02-12T15:09:44;18.50;56.70
11214;DHT22;5664;48.606;13.456;2023-02-12T15:12:14;18.50;56.60
11214;DHT22;5664;48.606;13.456;2023-02-12T15:14:42;18.40;56.70
11214;DHT22;5664;48.606;13.456;2023-02-12T15:24:45;18.30;56.90
11214;DHT22;5664;48.606;13.456;2023-02-12T15:27:12;18.40;57.00
11214;DHT22;5664;48.606;13.456;2023-02-12T15:29:41;18.40;57.00
11214;DHT22;5664;48.606;13.456;2023-02-12T15:32:08;18.30;57.00
11214;DHT22;5664;48.606;13.456;2023-02-12T15:34:38;18.30;57.00
11214;DHT22;5664;48.606;13.456;2023-02-12T15:37:06;18.20;57.00
11214;DHT22;5664;48.606;13.456;2023-02-12T15:39:42;18.20;56.90
11214;DHT22;5664;48.606;13.456;2023-02-12T15:42:27;18.20;56.80
11214;DHT22;5664;48.606;13.456;2023-02-12T15:47:37;18.20;57.20
11214;DHT22;5664;48.606;13.456;2023-02-12T15:50:03;18.20;57.20
11214;DHT22;5664;48.606;13.456;2023-02-12T15:52:31;18.20;57.30
11214;DHT22;5664;48.606;13.456;2023-02-12T15:54:59;18.30;57.50
11214;DHT22;5664;48.606;13.456;2023-02-12T15:57:24;18.10;57.50
11214;DHT22;5664;48.606;13.456;2023-02-12T15:59:55;18.10;57.70
11214;DHT22;5664;48.606;13.456;2023-02-12T16:02:25;18.20;57.60
11214;DHT22;5664;48.606;13.456;2023-02-12T16:04:53;18.20;57.70
11214;DHT22;5664;48.606;13.456;2023-02-12T16:07:18;18.20;57.70
11214;DHT22;5664;48.606;13.456;2023-02-12T16:09:44;18.10;57.70
11214;DHT22;5664;48.606;13.456;2023-02-12T16:12:14;18.10;57.80
11214;DHT22;5664;48.606;13.456;2023-02-12T16:14:52;18.10;57.80
11214;DHT22;5664;48.606;13.456;2023-02-12T16:19:56;18.10;57.90
11214;DHT22;5664;48.606;13.456;2023-02-12T16:22:33;18.10;58.00
11214;DHT22;5664;48.606;13.456;2023-02-12T16:25:00;18.10;58.00
11214;DHT22;5664;48.606;13.456;2023-02-12T16:27:27;18.10;58.00
11214;DHT22;5664;48.606;13.456;2023-02-12T16:29:56;18.10;58.00
11214;DHT22;5664;48.606;13.456;2023-02-12T16:35:01;18.10;58.10
11214;DHT22;5664;48.606;13.456;2023-02-12T16:47:48;18.10;58.30
11214;DHT22;5664;48.606;13.456;2023-02-12T16:50:14;18.10;58.40
11214;DHT22;5664;48.606;13.456;2023-02-12T16:52:40;18.10;58.40
11214;DHT22;5664;48.606;13.456;2023-02-12T16:55:10;18.00;58.40
11214;DHT22;5664;48.606;13.456;2023-02-12T16:57:37;18.10;58.50
11214;DHT22;5664;48.606;13.456;2023-02-12T17:00:03;18.10;58.50
11214;DHT22;5664;48.606;13.456;2023-02-12T17:02:28;18.10;58.60
11214;DHT22;5664;48.606;13.456;2023-02-12T17:04:54;18.10;58.60
11214;DHT22;5664;48.606;13.456;2023-02-12T17:07:21;18.10;58.70
11214;DHT22;5664;48.606;13.456;2023-02-12T17:09:47;18.10;58.60
11214;DHT22;5664;48.606;13.456;2023-02-12T17:12:13;18.10;58.60
11214;DHT22;5664;48.606;13.456;2023-02-12T17:14:39;18.10;58.60
11214;DHT22;5664;48.606;13.456;2023-02-12T17:17:04;18.10;58.60
11214;DHT22;5664;48.606;13.456;2023-02-12T17:19:30;18.00;58.60
11214;DHT22;5664;48.606;13.456;2023-02-12T17:21:55;18.10;58.60
11214;DHT22;5664;48.606;13.456;2023-02-12T17:24:22;18.20;58.70
11214;DHT22;5664;48.606;13.456;2023-02-12T17:26:49;18.10;58.60
11214;DHT22;5664;48.606;13.456;2023-02-12T17:29:15;18.20;58.60
11214;DHT22;5664;48.606;13.456;2023-02-12T17:31:40;18.10;58.60
11214;DHT22;5664;48.606;13.456;2023-02-12T17:34:06;18.20;58.60
11214;DHT22;5664;48.606;13.456;2023-02-12T17:36:32;18.10;58.60
11214;DHT22;5664;48.606;13.456;2023-02-12T17:38:58;18.10;58.60
11214;DHT22;5664;48.606;13.456;2023-02-12T17:41:24;18.20;58.60
11214;DHT22;5664;48.606;13.456;2023-02-12T17:43:50;18.10;58.60
11214;DHT22;5664;48.606;13.456;2023-02-12T17:46:20;18.10;58.60
11214;DHT22;5664;48.606;13.456;2023-02-12T17:48:46;18.10;58.60
11214;DHT22;5664;48.606;13.456;2023-02-12T17:51:12;18.20;58.60
11214;DHT22;5664;48.606;13.456;2023-02-12T17:53:38;18.10;58.60
11214;DHT22;5664;48.606;13.456;2023-02-12T17:56:03;18.10;58.60
11214;DHT22;5664;48.606;13.456;2023-02-12T17:58:29;17.80;58.50
11214;DHT22;5664;48.606;13.456;2023-02-12T18:00:55;18.10;58.70
11214;DHT22;5664;48.606;13.456;2023-02-12T18:03:21;18.10;58.70
11214;DHT22;5664;48.606;13.456;2023-02-12T18:05:46;18.10;58.70
11214;DHT22;5664;48.606;13.456;2023-02-12T18:08:12;18.10;58.80
11214;DHT22;5664;48.606;13.456;2023-02-12T18:10:38;18.10;58.80
11214;DHT22;5664;48.606;13.456;2023-02-12T18:13:04;18.10;58.90
11214;DHT22;5664;48.606;13.456;2023-02-12T18:15:29;18.10;59.00
11214;DHT22;5664;48.606;13.456;2023-02-12T18:17:55;18.10;59.10
11214;DHT22;5664;48.606;13.456;2023-02-12T18:20:20;18.10;59.10
11214;DHT22;5664;48.606;13.456;2023-02-12T18:22:46;18.10;59.20
11214;DHT22;5664;48.606;13.456;2023-02-12T18:25:11;18.10;59.30
11214;DHT22;5664;48.606;13.456;2023-02-12T18:27:37;18.10;59.30